sensor_id;sensor_type;location;lat;lon;timestamp;P1;durP1;ratioP1;P2;durP2;ratioP2
49910;SDS011;35803;53.096;5.844;2024-02-04T00:01:39;4.63;;;1.38;;
49910;SDS011;35803;53.096;5.844;2024-02-04T00:04:25;3.13;;;1.40;;
49910;SDS011;35803;53.096;5.844;2024-02-04T00:07:12;3.50;;;1.15;;
49910;SDS011;35803;53.096;5.844;2024-02-04T00:09:57;3.28;;;1.17;;
49910;SDS011;35803;53.096;5.844;2024-02-04T00:12:43;5.38;;;1.80;;
49910;SDS011;35803;53.096;5.844;2024-02-04T00:15:29;5.47;;;1.50;;
49910;SDS011;35803;53.096;5.844;2024-02-04T00:18:15;3.88;;;1.10;;
49910;SDS011;35803;53.096;5.844;2024-02-04T00:21:01;4.13;;;1.50;;
49910;SDS011;35803;53.096;5.844;2024-02-04T00:23:46;4.93;;;1.65;;
49910;SDS011;35803;53.096;5.844;2024-02-04T00:26:35;5.68;;;1.65;;
49910;SDS011;35803;53.096;5.844;2024-02-04T00:29:20;2.33;;;1.50;;
49910;SDS011;35803;53.096;5.844;2024-02-04T00:32:06;8.88;;;1.60;;
49910;SDS011;35803;53.096;5.844;2024-02-04T00:34:53;6.55;;;1.73;;
49910;SDS011;35803;53.096;5.844;2024-02-04T00:37:38;10.60;;;1.65;;
49910;SDS011;35803;53.096;5.844;2024-02-04T00:40:24;5.53;;;1.60;;
49910;SDS011;35803;53.096;5.844;2024-02-04T00:43:11;7.30;;;1.38;;
49910;SDS011;35803;53.096;5.844;2024-02-04T00:45:57;4.18;;;1.40;;
49910;SDS011;35803;53.096;5.844;2024-02-04T00:48:45;3.97;;;1.38;;
49910;SDS011;35803;53.096;5.844;2024-02-04T00:51:31;3.53;;;1.45;;
49910;SDS011;35803;53.096;5.844;2024-02-04T00:54:18;7.40;;;1.60;;
49910;SDS011;35803;53.096;5.844;2024-02-04T00:57:04;7.60;;;1.30;;
49910;SDS011;35803;53.096;5.844;2024-02-04T00:59:50;7.88;;;1.30;;
49910;SDS011;35803;53.096;5.844;2024-02-04T01:02:36;6.32;;;1.50;;
49910;SDS011;35803;53.096;5.844;2024-02-04T01:05:22;6.63;;;1.08;;
49910;SDS011;35803;53.096;5.844;2024-02-04T01:08:08;5.57;;;1.25;;
49910;SDS011;35803;53.096;5.844;2024-02-04T01:10:53;8.85;;;1.23;;
49910;SDS011;35803;53.096;5.844;2024-02-04T01:13:39;8.43;;;1.52;;
49910;SDS011;35803;53.096;5.844;2024-02-04T01:16:25;1.65;;;1.30;;
49910;SDS011;35803;53.096;5.844;2024-02-04T01:19:12;6.57;;;1.30;;
49910;SDS011;35803;53.096;5.844;2024-02-04T01:21:57;4.63;;;1.17;;
49910;SDS011;35803;53.096;5.844;2024-02-04T01:24:43;5.75;;;1.75;;
49910;SDS011;35803;53.096;5.844;2024-02-04T01:27:29;7.90;;;1.45;;
49910;SDS011;35803;53.096;5.844;2024-02-04T01:30:15;6.28;;;1.90;;
49910;SDS011;35803;53.096;5.844;2024-02-04T01:33:01;8.23;;;1.65;;
49910;SDS011;35803;53.096;5.844;2024-02-04T01:35:46;12.10;;;1.60;;
49910;SDS011;35803;53.096;5.844;2024-02-04T01:38:32;6.47;;;2.10;;
49910;SDS011;35803;53.096;5.844;2024-02-04T01:41:18;6.00;;;1.75;;
49910;SDS011;35803;53.096;5.844;2024-02-04T01:44:04;6.07;;;1.67;;
49910;SDS011;35803;53.096;5.844;2024-02-04T01:46:50;9.05;;;1.50;;
49910;SDS011;35803;53.096;5.844;2024-02-04T01:49:36;4.97;;;1.45;;
49910;SDS011;35803;53.096;5.844;2024-02-04T01:52:22;1.23;;;1.10;;
49910;SDS011;35803;53.096;5.844;2024-02-04T01:55:08;6.88;;;1.40;;
49910;SDS011;35803;53.096;5.844;2024-02-04T01:57:54;5.85;;;1.65;;
49910;SDS011;35803;53.096;5.844;2024-02-04T02:00:40;5.53;;;2.22;;
49910;SDS011;35803;53.096;5.844;2024-02-04T02:03:27;3.80;;;1.42;;
49910;SDS011;35803;53.096;5.844;2024-02-04T02:06:13;3.85;;;1.75;;
49910;SDS011;35803;53.096;5.844;2024-02-04T02:09:00;11.77;;;2.30;;
49910;SDS011;35803;53.096;5.844;2024-02-04T02:11:54;7.60;;;2.10;;
49910;SDS011;35803;53.096;5.844;2024-02-04T02:14:56;9.57;;;2.30;;
49910;SDS011;35803;53.096;5.844;2024-02-04T02:27:18;7.60;;;2.05;;
49910;SDS011;35803;53.096;5.844;2024-02-04T02:30:05;8.20;;;2.10;;
49910;SDS011;35803;53.096;5.844;2024-02-04T02:32:53;7.65;;;1.90;;
49910;SDS011;35803;53.096;5.844;2024-02-04T02:35:39;9.05;;;1.70;;
49910;SDS011;35803;53.096;5.844;2024-02-04T02:38:26;6.28;;;2.00;;
49910;SDS011;35803;53.096;5.844;2024-02-04T02:41:26;4.72;;;1.58;;
49910;SDS011;35803;53.096;5.844;2024-02-04T02:44:13;10.48;;;2.13;;
49910;SDS011;35803;53.096;5.844;2024-02-04T02:46:59;5.38;;;1.50;;
49910;SDS011;35803;53.096;5.844;2024-02-04T02:49:46;7.50;;;1.30;;
49910;SDS011;35803;53.096;5.844;2024-02-04T02:52:32;8.98;;;1.42;;
49910;SDS011;35803;53.096;5.844;2024-02-04T02:55:24;7.25;;;1.90;;
49910;SDS011;35803;53.096;5.844;2024-02-04T02:58:10;8.98;;;1.42;;
49910;SDS011;35803;53.096;5.844;2024-02-04T03:00:56;6.82;;;1.70;;
49910;SDS011;35803;53.096;5.844;2024-02-04T03:03:41;6.25;;;1.65;;
49910;SDS011;35803;53.096;5.844;2024-02-04T03:06:27;5.43;;;1.52;;
49910;SDS011;35803;53.096;5.844;2024-02-04T03:09:13;5.72;;;1.40;;
49910;SDS011;35803;53.096;5.844;2024-02-04T03:11:59;7.72;;;1.60;;
49910;SDS011;35803;53.096;5.844;2024-02-04T03:14:44;8.50;;;2.42;;
49910;SDS011;35803;53.096;5.844;2024-02-04T03:17:30;8.90;;;2.22;;
49910;SDS011;35803;53.096;5.844;2024-02-04T03:20:16;4.45;;;1.60;;
49910;SDS011;35803;53.096;5.844;2024-02-04T03:23:02;7.72;;;1.70;;
49910;SDS011;35803;53.096;5.844;2024-02-04T03:25:47;10.75;;;1.85;;
49910;SDS011;35803;53.096;5.844;2024-02-04T03:28:33;6.07;;;1.55;;
49910;SDS011;35803;53.096;5.844;2024-02-04T03:31:22;11.35;;;1.73;;
49910;SDS011;35803;53.096;5.844;2024-02-04T03:34:09;7.53;;;1.70;;
49910;SDS011;35803;53.096;5.844;2024-02-04T03:36:55;6.57;;;2.25;;
49910;SDS011;35803;53.096;5.844;2024-02-04T03:39:40;7.80;;;1.83;;
49910;SDS011;35803;53.096;5.844;2024-02-04T03:42:26;6.45;;;1.73;;
49910;SDS011;35803;53.096;5.844;2024-02-04T03:45:12;8.07;;;1.70;;
49910;SDS011;35803;53.096;5.844;2024-02-04T03:47:58;7.80;;;1.80;;
49910;SDS011;35803;53.096;5.844;2024-02-04T03:50:44;7.60;;;1.80;;
49910;SDS011;35803;53.096;5.844;2024-02-04T03:53:29;11.10;;;1.58;;
49910;SDS011;35803;53.096;5.844;2024-02-04T03:56:15;8.30;;;1.50;;
49910;SDS011;35803;53.096;5.844;2024-02-04T03:59:01;11.13;;;1.88;;
49910;SDS011;35803;53.096;5.844;2024-02-04T04:01:49;7.45;;;1.65;;
49910;SDS011;35803;53.096;5.844;2024-02-04T04:04:36;4.68;;;1.40;;
49910;SDS011;35803;53.096;5.844;2024-02-04T04:07:21;14.85;;;1.95;;
49910;SDS011;35803;53.096;5.844;2024-02-04T04:10:07;6.55;;;1.83;;
49910;SDS011;35803;53.096;5.844;2024-02-04T04:12:54;9.52;;;2.05;;
49910;SDS011;35803;53.096;5.844;2024-02-04T04:15:40;9.98;;;1.65;;
49910;SDS011;35803;53.096;5.844;2024-02-04T04:18:27;11.48;;;1.67;;
49910;SDS011;35803;53.096;5.844;2024-02-04T04:21:13;4.40;;;1.52;;
49910;SDS011;35803;53.096;5.844;2024-02-04T04:23:59;5.93;;;1.65;;
49910;SDS011;35803;53.096;5.844;2024-02-04T04:26:45;3.58;;;1.45;;
49910;SDS011;35803;53.096;5.844;2024-02-04T04:29:31;10.73;;;1.70;;
49910;SDS011;35803;53.096;5.844;2024-02-04T04:32:16;9.18;;;1.98;;
49910;SDS011;35803;53.096;5.844;2024-02-04T04:35:00;5.82;;;1.27;;
49910;SDS011;35803;53.096;5.844;2024-02-04T04:37:46;6.30;;;1.35;;
49910;SDS011;35803;53.096;5.844;2024-02-04T04:40:31;13.27;;;2.28;;
49910;SDS011;35803;53.096;5.844;2024-02-04T04:43:17;5.20;;;1.30;;
49910;SDS011;35803;53.096;5.844;2024-02-04T04:46:03;9.68;;;1.92;;
49910;SDS011;35803;53.096;5.844;2024-02-04T04:48:49;9.13;;;1.92;;
49910;SDS011;35803;53.096;5.844;2024-02-04T04:51:34;5.03;;;1.35;;
49910;SDS011;35803;53.096;5.844;2024-02-04T04:54:20;8.85;;;1.58;;
49910;SDS011;35803;53.096;5.844;2024-02-04T04:57:06;7.03;;;1.92;;
49910;SDS011;35803;53.096;5.844;2024-02-04T04:59:52;9.13;;;1.67;;
49910;SDS011;35803;53.096;5.844;2024-02-04T05:02:39;4.07;;;1.55;;
49910;SDS011;35803;53.096;5.844;2024-02-04T05:05:25;11.40;;;2.20;;
49910;SDS011;35803;53.096;5.844;2024-02-04T05:08:12;9.65;;;1.73;;
49910;SDS011;35803;53.096;5.844;2024-02-04T05:11:20;7.15;;;1.42;;
49910;SDS011;35803;53.096;5.844;2024-02-04T05:14:35;8.13;;;1.50;;
49910;SDS011;35803;53.096;5.844;2024-02-04T05:17:21;7.97;;;1.35;;
49910;SDS011;35803;53.096;5.844;2024-02-04T05:20:07;4.93;;;1.70;;
49910;SDS011;35803;53.096;5.844;2024-02-04T05:23:05;8.30;;;1.65;;
49910;SDS011;35803;53.096;5.844;2024-02-04T05:25:51;8.10;;;1.70;;
49910;SDS011;35803;53.096;5.844;2024-02-04T05:28:36;7.55;;;1.85;;
49910;SDS011;35803;53.096;5.844;2024-02-04T05:31:22;10.40;;;1.95;;
49910;SDS011;35803;53.096;5.844;2024-02-04T05:34:08;6.55;;;1.50;;
49910;SDS011;35803;53.096;5.844;2024-02-04T05:36:54;5.82;;;1.65;;
49910;SDS011;35803;53.096;5.844;2024-02-04T05:39:40;7.15;;;1.67;;
49910;SDS011;35803;53.096;5.844;2024-02-04T05:42:25;7.25;;;1.60;;
49910;SDS011;35803;53.096;5.844;2024-02-04T05:45:11;6.00;;;1.48;;
49910;SDS011;35803;53.096;5.844;2024-02-04T05:47:57;10.32;;;1.70;;
49910;SDS011;35803;53.096;5.844;2024-02-04T05:50:43;8.18;;;1.85;;
49910;SDS011;35803;53.096;5.844;2024-02-04T05:53:29;3.80;;;1.55;;
49910;SDS011;35803;53.096;5.844;2024-02-04T05:56:14;6.60;;;1.77;;
49910;SDS011;35803;53.096;5.844;2024-02-04T05:59:00;8.73;;;1.88;;
49910;SDS011;35803;53.096;5.844;2024-02-04T06:01:46;10.18;;;1.75;;
49910;SDS011;35803;53.096;5.844;2024-02-04T06:04:32;13.15;;;1.67;;
49910;SDS011;35803;53.096;5.844;2024-02-04T06:07:18;9.57;;;1.70;;
49910;SDS011;35803;53.096;5.844;2024-02-04T06:10:03;6.30;;;1.83;;
49910;SDS011;35803;53.096;5.844;2024-02-04T06:12:50;5.40;;;1.92;;
49910;SDS011;35803;53.096;5.844;2024-02-04T06:15:35;7.72;;;1.30;;
49910;SDS011;35803;53.096;5.844;2024-02-04T06:18:21;7.13;;;1.80;;
49910;SDS011;35803;53.096;5.844;2024-02-04T06:21:07;9.20;;;2.47;;
49910;SDS011;35803;53.096;5.844;2024-02-04T06:23:53;8.20;;;2.53;;
49910;SDS011;35803;53.096;5.844;2024-02-04T06:26:38;6.93;;;1.95;;
49910;SDS011;35803;53.096;5.844;2024-02-04T06:29:25;10.65;;;2.53;;
49910;SDS011;35803;53.096;5.844;2024-02-04T06:32:10;7.32;;;2.53;;
49910;SDS011;35803;53.096;5.844;2024-02-04T06:34:56;9.60;;;1.88;;
49910;SDS011;35803;53.096;5.844;2024-02-04T06:37:43;9.73;;;1.88;;
49910;SDS011;35803;53.096;5.844;2024-02-04T06:40:29;11.07;;;1.60;;
49910;SDS011;35803;53.096;5.844;2024-02-04T06:43:14;13.15;;;2.22;;
49910;SDS011;35803;53.096;5.844;2024-02-04T06:46:00;5.15;;;1.50;;
49910;SDS011;35803;53.096;5.844;2024-02-04T06:48:46;6.70;;;2.00;;
49910;SDS011;35803;53.096;5.844;2024-02-04T06:51:32;12.10;;;2.42;;
49910;SDS011;35803;53.096;5.844;2024-02-04T06:54:17;9.52;;;2.17;;
49910;SDS011;35803;53.096;5.844;2024-02-04T06:57:03;10.38;;;1.92;;
49910;SDS011;35803;53.096;5.844;2024-02-04T06:59:49;8.77;;;2.58;;
49910;SDS011;35803;53.096;5.844;2024-02-04T07:02:34;4.25;;;1.63;;
49910;SDS011;35803;53.096;5.844;2024-02-04T07:05:20;5.43;;;1.92;;
49910;SDS011;35803;53.096;5.844;2024-02-04T07:08:07;7.28;;;2.00;;
49910;SDS011;35803;53.096;5.844;2024-02-04T07:10:53;11.25;;;2.40;;
49910;SDS011;35803;53.096;5.844;2024-02-04T07:13:38;7.82;;;1.70;;
49910;SDS011;35803;53.096;5.844;2024-02-04T07:16:25;5.95;;;1.92;;
49910;SDS011;35803;53.096;5.844;2024-02-04T07:19:11;7.15;;;1.63;;
49910;SDS011;35803;53.096;5.844;2024-02-04T07:21:56;4.38;;;2.15;;
49910;SDS011;35803;53.096;5.844;2024-02-04T07:24:42;7.68;;;1.60;;
49910;SDS011;35803;53.096;5.844;2024-02-04T07:27:28;10.43;;;1.60;;
49910;SDS011;35803;53.096;5.844;2024-02-04T07:30:14;5.43;;;1.38;;
49910;SDS011;35803;53.096;5.844;2024-02-04T07:33:00;8.00;;;1.63;;
49910;SDS011;35803;53.096;5.844;2024-02-04T07:35:46;5.57;;;1.83;;
49910;SDS011;35803;53.096;5.844;2024-02-04T07:38:31;5.55;;;1.80;;
49910;SDS011;35803;53.096;5.844;2024-02-04T07:41:17;7.05;;;1.70;;
49910;SDS011;35803;53.096;5.844;2024-02-04T07:44:03;5.93;;;1.80;;
49910;SDS011;35803;53.096;5.844;2024-02-04T07:46:49;11.38;;;1.95;;
49910;SDS011;35803;53.096;5.844;2024-02-04T07:49:34;10.30;;;1.83;;
49910;SDS011;35803;53.096;5.844;2024-02-04T07:52:20;6.90;;;2.15;;
49910;SDS011;35803;53.096;5.844;2024-02-04T07:55:06;12.13;;;2.10;;
49910;SDS011;35803;53.096;5.844;2024-02-04T07:57:52;5.97;;;1.80;;
49910;SDS011;35803;53.096;5.844;2024-02-04T08:00:38;5.80;;;2.03;;
49910;SDS011;35803;53.096;5.844;2024-02-04T08:03:23;8.02;;;2.28;;
49910;SDS011;35803;53.096;5.844;2024-02-04T08:06:09;8.52;;;1.95;;
49910;SDS011;35803;53.096;5.844;2024-02-04T08:08:55;5.75;;;2.10;;
49910;SDS011;35803;53.096;5.844;2024-02-04T08:11:40;7.28;;;2.10;;
49910;SDS011;35803;53.096;5.844;2024-02-04T08:14:26;11.38;;;1.85;;
49910;SDS011;35803;53.096;5.844;2024-02-04T08:17:12;5.40;;;1.92;;
49910;SDS011;35803;53.096;5.844;2024-02-04T08:19:58;10.57;;;2.45;;
49910;SDS011;35803;53.096;5.844;2024-02-04T08:22:43;6.38;;;1.83;;
49910;SDS011;35803;53.096;5.844;2024-02-04T08:25:29;3.92;;;1.75;;
49910;SDS011;35803;53.096;5.844;2024-02-04T08:28:15;8.68;;;2.40;;
49910;SDS011;35803;53.096;5.844;2024-02-04T08:31:01;5.90;;;2.13;;
49910;SDS011;35803;53.096;5.844;2024-02-04T08:33:46;8.35;;;2.45;;
49910;SDS011;35803;53.096;5.844;2024-02-04T08:36:32;6.40;;;2.05;;
49910;SDS011;35803;53.096;5.844;2024-02-04T08:39:18;7.07;;;1.80;;
49910;SDS011;35803;53.096;5.844;2024-02-04T08:42:04;9.32;;;2.05;;
49910;SDS011;35803;53.096;5.844;2024-02-04T08:44:50;7.60;;;2.00;;
49910;SDS011;35803;53.096;5.844;2024-02-04T08:47:35;8.60;;;1.65;;
49910;SDS011;35803;53.096;5.844;2024-02-04T08:50:21;3.70;;;1.63;;
49910;SDS011;35803;53.096;5.844;2024-02-04T08:53:09;8.43;;;2.10;;
49910;SDS011;35803;53.096;5.844;2024-02-04T08:55:55;4.82;;;2.33;;
49910;SDS011;35803;53.096;5.844;2024-02-04T08:58:41;9.80;;;2.40;;
49910;SDS011;35803;53.096;5.844;2024-02-04T09:01:26;5.97;;;1.65;;
49910;SDS011;35803;53.096;5.844;2024-02-04T09:04:13;8.52;;;2.60;;
49910;SDS011;35803;53.096;5.844;2024-02-04T09:06:58;10.02;;;2.33;;
49910;SDS011;35803;53.096;5.844;2024-02-04T09:09:44;10.10;;;2.17;;
49910;SDS011;35803;53.096;5.844;2024-02-04T09:12:30;8.73;;;2.13;;
49910;SDS011;35803;53.096;5.844;2024-02-04T09:15:15;6.38;;;1.60;;
49910;SDS011;35803;53.096;5.844;2024-02-04T09:18:01;4.10;;;2.17;;
49910;SDS011;35803;53.096;5.844;2024-02-04T09:20:47;5.00;;;1.70;;
49910;SDS011;35803;53.096;5.844;2024-02-04T09:23:33;7.28;;;1.80;;
49910;SDS011;35803;53.096;5.844;2024-02-04T09:26:19;10.73;;;2.50;;
49910;SDS011;35803;53.096;5.844;2024-02-04T09:29:04;6.80;;;2.03;;
49910;SDS011;35803;53.096;5.844;2024-02-04T09:31:51;9.75;;;2.17;;
49910;SDS011;35803;53.096;5.844;2024-02-04T09:34:38;10.25;;;1.98;;
49910;SDS011;35803;53.096;5.844;2024-02-04T09:37:24;5.47;;;1.35;;
49910;SDS011;35803;53.096;5.844;2024-02-04T09:40:10;4.90;;;1.60;;
49910;SDS011;35803;53.096;5.844;2024-02-04T09:42:57;7.38;;;1.35;;
49910;SDS011;35803;53.096;5.844;2024-02-04T09:45:43;12.82;;;2.25;;
49910;SDS011;35803;53.096;5.844;2024-02-04T09:48:32;6.28;;;1.80;;
49910;SDS011;35803;53.096;5.844;2024-02-04T09:51:18;8.77;;;1.52;;
49910;SDS011;35803;53.096;5.844;2024-02-04T09:54:04;9.10;;;1.52;;
49910;SDS011;35803;53.096;5.844;2024-02-04T09:56:56;5.65;;;1.60;;
49910;SDS011;35803;53.096;5.844;2024-02-04T09:59:43;6.25;;;1.63;;
49910;SDS011;35803;53.096;5.844;2024-02-04T10:02:30;10.52;;;2.03;;
49910;SDS011;35803;53.096;5.844;2024-02-04T10:05:17;3.80;;;1.40;;
49910;SDS011;35803;53.096;5.844;2024-02-04T10:08:03;9.80;;;1.30;;
49910;SDS011;35803;53.096;5.844;2024-02-04T10:10:49;8.95;;;1.40;;
49910;SDS011;35803;53.096;5.844;2024-02-04T10:13:47;7.63;;;1.85;;
49910;SDS011;35803;53.096;5.844;2024-02-04T10:16:35;5.50;;;1.52;;
49910;SDS011;35803;53.096;5.844;2024-02-04T10:19:23;5.53;;;1.40;;
49910;SDS011;35803;53.096;5.844;2024-02-04T10:22:10;5.63;;;1.27;;
49910;SDS011;35803;53.096;5.844;2024-02-04T10:25:05;6.40;;;1.42;;
49910;SDS011;35803;53.096;5.844;2024-02-04T10:27:56;9.15;;;1.52;;
49910;SDS011;35803;53.096;5.844;2024-02-04T10:30:43;5.38;;;1.75;;
49910;SDS011;35803;53.096;5.844;2024-02-04T10:33:32;5.13;;;1.38;;
49910;SDS011;35803;53.096;5.844;2024-02-04T10:36:18;5.18;;;1.95;;
49910;SDS011;35803;53.096;5.844;2024-02-04T10:39:03;6.55;;;1.73;;
49910;SDS011;35803;53.096;5.844;2024-02-04T10:41:50;5.72;;;1.63;;
49910;SDS011;35803;53.096;5.844;2024-02-04T10:44:37;3.55;;;1.60;;
49910;SDS011;35803;53.096;5.844;2024-02-04T10:47:29;3.15;;;1.70;;
49910;SDS011;35803;53.096;5.844;2024-02-04T10:50:18;5.43;;;2.03;;
49910;SDS011;35803;53.096;5.844;2024-02-04T10:53:05;2.20;;;1.95;;
49910;SDS011;35803;53.096;5.844;2024-02-04T10:55:54;9.38;;;2.40;;
49910;SDS011;35803;53.096;5.844;2024-02-04T10:58:43;5.40;;;2.67;;
49910;SDS011;35803;53.096;5.844;2024-02-04T11:01:30;8.98;;;3.08;;
49910;SDS011;35803;53.096;5.844;2024-02-04T11:04:17;6.57;;;2.65;;
49910;SDS011;35803;53.096;5.844;2024-02-04T11:07:03;6.30;;;2.30;;
49910;SDS011;35803;53.096;5.844;2024-02-04T11:09:49;4.90;;;2.22;;
49910;SDS011;35803;53.096;5.844;2024-02-04T11:12:36;6.18;;;1.92;;
49910;SDS011;35803;53.096;5.844;2024-02-04T11:15:23;4.80;;;2.00;;
49910;SDS011;35803;53.096;5.844;2024-02-04T11:27:48;8.27;;;1.80;;
49910;SDS011;35803;53.096;5.844;2024-02-04T11:30:34;6.57;;;1.90;;
49910;SDS011;35803;53.096;5.844;2024-02-04T11:33:21;7.60;;;2.50;;
49910;SDS011;35803;53.096;5.844;2024-02-04T11:36:11;4.60;;;1.90;;
49910;SDS011;35803;53.096;5.844;2024-02-04T11:38:58;5.47;;;1.92;;
49910;SDS011;35803;53.096;5.844;2024-02-04T11:41:44;7.30;;;1.77;;
49910;SDS011;35803;53.096;5.844;2024-02-04T11:44:31;6.35;;;1.92;;
49910;SDS011;35803;53.096;5.844;2024-02-04T11:47:24;4.45;;;2.00;;
49910;SDS011;35803;53.096;5.844;2024-02-04T11:53:06;8.35;;;1.90;;
49910;SDS011;35803;53.096;5.844;2024-02-04T11:55:55;3.65;;;1.63;;
49910;SDS011;35803;53.096;5.844;2024-02-04T11:58:41;7.07;;;1.60;;
49910;SDS011;35803;53.096;5.844;2024-02-04T12:01:27;7.03;;;1.52;;
49910;SDS011;35803;53.096;5.844;2024-02-04T12:04:13;7.07;;;1.70;;
49910;SDS011;35803;53.096;5.844;2024-02-04T12:07:02;4.53;;;1.45;;
49910;SDS011;35803;53.096;5.844;2024-02-04T12:09:48;2.53;;;1.02;;
49910;SDS011;35803;53.096;5.844;2024-02-04T12:12:34;4.43;;;1.30;;
49910;SDS011;35803;53.096;5.844;2024-02-04T12:15:20;4.03;;;1.30;;
49910;SDS011;35803;53.096;5.844;2024-02-04T12:18:09;2.70;;;1.50;;
49910;SDS011;35803;53.096;5.844;2024-02-04T12:20:56;4.32;;;1.20;;
49910;SDS011;35803;53.096;5.844;2024-02-04T12:23:42;3.33;;;1.20;;
49910;SDS011;35803;53.096;5.844;2024-02-04T12:26:28;5.95;;;1.50;;
49910;SDS011;35803;53.096;5.844;2024-02-04T12:29:14;5.30;;;1.40;;
49910;SDS011;35803;53.096;5.844;2024-02-04T12:32:00;4.57;;;1.10;;
49910;SDS011;35803;53.096;5.844;2024-02-04T12:34:47;7.15;;;1.30;;
49910;SDS011;35803;53.096;5.844;2024-02-04T12:37:34;6.38;;;1.35;;
49910;SDS011;35803;53.096;5.844;2024-02-04T12:40:23;6.80;;;1.70;;
49910;SDS011;35803;53.096;5.844;2024-02-04T12:43:10;7.47;;;1.33;;
49910;SDS011;35803;53.096;5.844;2024-02-04T12:45:56;4.60;;;1.40;;
49910;SDS011;35803;53.096;5.844;2024-02-04T12:48:44;5.30;;;1.50;;
49910;SDS011;35803;53.096;5.844;2024-02-04T12:51:31;4.25;;;1.40;;
49910;SDS011;35803;53.096;5.844;2024-02-04T12:54:18;5.90;;;1.30;;
49910;SDS011;35803;53.096;5.844;2024-02-04T12:57:04;5.22;;;1.27;;
49910;SDS011;35803;53.096;5.844;2024-02-04T12:59:50;4.43;;;1.45;;
49910;SDS011;35803;53.096;5.844;2024-02-04T13:02:36;6.28;;;1.30;;
49910;SDS011;35803;53.096;5.844;2024-02-04T13:05:22;10.85;;;1.40;;
49910;SDS011;35803;53.096;5.844;2024-02-04T13:08:11;6.68;;;1.50;;
49910;SDS011;35803;53.096;5.844;2024-02-04T13:10:57;3.92;;;1.13;;
49910;SDS011;35803;53.096;5.844;2024-02-04T13:13:43;5.95;;;1.65;;
49910;SDS011;35803;53.096;5.844;2024-02-04T13:16:29;5.72;;;1.48;;
49910;SDS011;35803;53.096;5.844;2024-02-04T13:19:15;7.85;;;1.52;;
49910;SDS011;35803;53.096;5.844;2024-02-04T13:22:02;8.48;;;1.58;;
49910;SDS011;35803;53.096;5.844;2024-02-04T13:24:49;8.65;;;1.52;;
49910;SDS011;35803;53.096;5.844;2024-02-04T13:27:35;4.68;;;1.88;;
49910;SDS011;35803;53.096;5.844;2024-02-04T13:30:20;4.68;;;1.48;;
49910;SDS011;35803;53.096;5.844;2024-02-04T13:33:06;4.15;;;1.42;;
49910;SDS011;35803;53.096;5.844;2024-02-04T13:35:54;3.40;;;1.40;;
49910;SDS011;35803;53.096;5.844;2024-02-04T13:38:39;5.65;;;1.38;;
49910;SDS011;35803;53.096;5.844;2024-02-04T13:41:25;1.58;;;1.20;;
49910;SDS011;35803;53.096;5.844;2024-02-04T13:44:11;3.15;;;1.33;;
49910;SDS011;35803;53.096;5.844;2024-02-04T13:46:57;3.58;;;1.27;;
49910;SDS011;35803;53.096;5.844;2024-02-04T13:49:43;6.38;;;1.40;;
49910;SDS011;35803;53.096;5.844;2024-02-04T13:52:29;5.82;;;1.23;;
49910;SDS011;35803;53.096;5.844;2024-02-04T13:55:14;7.57;;;1.35;;
49910;SDS011;35803;53.096;5.844;2024-02-04T13:58:00;2.28;;;1.38;;
49910;SDS011;35803;53.096;5.844;2024-02-04T14:00:46;7.88;;;1.65;;
49910;SDS011;35803;53.096;5.844;2024-02-04T14:03:32;4.80;;;1.38;;
49910;SDS011;35803;53.096;5.844;2024-02-04T14:06:17;4.57;;;1.30;;
49910;SDS011;35803;53.096;5.844;2024-02-04T14:09:03;6.38;;;1.83;;
49910;SDS011;35803;53.096;5.844;2024-02-04T14:11:51;3.95;;;1.60;;
49910;SDS011;35803;53.096;5.844;2024-02-04T14:14:37;3.25;;;1.42;;
49910;SDS011;35803;53.096;5.844;2024-02-04T14:17:23;2.92;;;1.67;;
49910;SDS011;35803;53.096;5.844;2024-02-04T14:20:09;4.68;;;1.88;;
49910;SDS011;35803;53.096;5.844;2024-02-04T14:22:55;4.35;;;1.67;;
49910;SDS011;35803;53.096;5.844;2024-02-04T14:25:42;4.00;;;2.38;;
49910;SDS011;35803;53.096;5.844;2024-02-04T14:28:27;5.47;;;1.88;;
49910;SDS011;35803;53.096;5.844;2024-02-04T14:31:13;3.50;;;1.70;;
49910;SDS011;35803;53.096;5.844;2024-02-04T14:33:59;6.65;;;1.70;;
49910;SDS011;35803;53.096;5.844;2024-02-04T14:36:45;5.25;;;2.63;;
49910;SDS011;35803;53.096;5.844;2024-02-04T14:39:30;3.70;;;1.77;;
49910;SDS011;35803;53.096;5.844;2024-02-04T14:42:19;7.43;;;2.28;;
49910;SDS011;35803;53.096;5.844;2024-02-04T14:45:05;4.20;;;2.03;;
49910;SDS011;35803;53.096;5.844;2024-02-04T14:47:51;5.32;;;2.40;;
49910;SDS011;35803;53.096;5.844;2024-02-04T14:50:37;4.50;;;1.95;;
49910;SDS011;35803;53.096;5.844;2024-02-04T14:53:23;5.05;;;2.00;;
49910;SDS011;35803;53.096;5.844;2024-02-04T14:56:08;5.38;;;2.40;;
49910;SDS011;35803;53.096;5.844;2024-02-04T14:58:54;7.43;;;2.20;;
49910;SDS011;35803;53.096;5.844;2024-02-04T15:01:44;4.82;;;2.72;;
49910;SDS011;35803;53.096;5.844;2024-02-04T15:04:30;3.95;;;2.20;;
49910;SDS011;35803;53.096;5.844;2024-02-04T15:07:17;3.60;;;2.28;;
49910;SDS011;35803;53.096;5.844;2024-02-04T15:10:03;5.05;;;2.80;;
49910;SDS011;35803;53.096;5.844;2024-02-04T15:12:49;5.35;;;2.35;;
49910;SDS011;35803;53.096;5.844;2024-02-04T15:15:38;3.40;;;2.33;;
49910;SDS011;35803;53.096;5.844;2024-02-04T15:18:24;5.03;;;2.63;;
49910;SDS011;35803;53.096;5.844;2024-02-04T15:21:10;4.65;;;2.58;;
49910;SDS011;35803;53.096;5.844;2024-02-04T15:23:56;4.03;;;2.63;;
49910;SDS011;35803;53.096;5.844;2024-02-04T15:26:49;5.18;;;2.63;;
49910;SDS011;35803;53.096;5.844;2024-02-04T15:29:35;5.72;;;3.42;;
49910;SDS011;35803;53.096;5.844;2024-02-04T15:32:22;6.00;;;3.08;;
49910;SDS011;35803;53.096;5.844;2024-02-04T15:35:08;5.43;;;2.92;;
49910;SDS011;35803;53.096;5.844;2024-02-04T15:37:54;6.82;;;3.15;;
49910;SDS011;35803;53.096;5.844;2024-02-04T15:40:43;6.32;;;2.58;;
49910;SDS011;35803;53.096;5.844;2024-02-04T15:43:29;6.10;;;3.20;;
49910;SDS011;35803;53.096;5.844;2024-02-04T15:46:15;6.80;;;3.00;;
49910;SDS011;35803;53.096;5.844;2024-02-04T15:49:02;5.82;;;2.50;;
49910;SDS011;35803;53.096;5.844;2024-02-04T15:51:49;3.60;;;2.22;;
49910;SDS011;35803;53.096;5.844;2024-02-04T15:54:36;7.72;;;2.30;;
49910;SDS011;35803;53.096;5.844;2024-02-04T15:57:22;5.85;;;2.65;;
49910;SDS011;35803;53.096;5.844;2024-02-04T16:00:08;6.60;;;2.53;;
49910;SDS011;35803;53.096;5.844;2024-02-04T16:03:02;4.28;;;2.30;;
49910;SDS011;35803;53.096;5.844;2024-02-04T16:05:48;5.95;;;2.78;;
49910;SDS011;35803;53.096;5.844;2024-02-04T16:08:34;4.70;;;2.13;;
49910;SDS011;35803;53.096;5.844;2024-02-04T16:11:20;5.85;;;2.70;;
49910;SDS011;35803;53.096;5.844;2024-02-04T16:14:09;6.65;;;2.80;;
49910;SDS011;35803;53.096;5.844;2024-02-04T16:17:02;5.60;;;2.58;;
49910;SDS011;35803;53.096;5.844;2024-02-04T16:19:51;7.13;;;1.95;;
49910;SDS011;35803;53.096;5.844;2024-02-04T16:22:37;7.95;;;1.90;;
49910;SDS011;35803;53.096;5.844;2024-02-04T16:25:23;9.13;;;2.15;;
49910;SDS011;35803;53.096;5.844;2024-02-04T16:28:14;4.38;;;1.50;;
49910;SDS011;35803;53.096;5.844;2024-02-04T16:31:02;2.92;;;1.90;;
49910;SDS011;35803;53.096;5.844;2024-02-04T16:33:48;3.63;;;1.83;;
49910;SDS011;35803;53.096;5.844;2024-02-04T16:36:34;7.40;;;2.58;;
49910;SDS011;35803;53.096;5.844;2024-02-04T16:39:19;7.30;;;2.10;;
49910;SDS011;35803;53.096;5.844;2024-02-04T16:42:05;4.25;;;1.92;;
49910;SDS011;35803;53.096;5.844;2024-02-04T16:44:54;9.57;;;3.72;;
49910;SDS011;35803;53.096;5.844;2024-02-04T16:47:39;9.65;;;3.30;;
49910;SDS011;35803;53.096;5.844;2024-02-04T16:50:25;6.93;;;2.97;;
49910;SDS011;35803;53.096;5.844;2024-02-04T16:53:11;6.70;;;2.88;;
49910;SDS011;35803;53.096;5.844;2024-02-04T16:55:59;8.93;;;2.83;;
49910;SDS011;35803;53.096;5.844;2024-02-04T16:58:45;7.63;;;3.03;;
49910;SDS011;35803;53.096;5.844;2024-02-04T17:01:31;10.60;;;3.28;;
49910;SDS011;35803;53.096;5.844;2024-02-04T17:04:17;6.78;;;3.10;;